createdAt,value
2019-02-27T00:00:22.596Z,75.32
2019-02-27T00:02:50.859Z,72.17
2019-02-27T00:05:19.098Z,76.00
2019-02-27T00:07:47.355Z,76.65
2019-02-27T00:10:15.603Z,70.75
2019-02-27T00:12:43.877Z,75.83
2019-02-27T00:15:12.113Z,75.67
2019-02-27T00:17:40.366Z,72.58
2019-02-27T00:20:08.620Z,75.25
2019-02-27T00:22:36.854Z,72.35
2019-02-27T00:25:05.267Z,74.40
2019-02-27T00:27:33.508Z,73.10
2019-02-27T00:30:04.621Z,70.92
2019-02-27T00:32:31.733Z,72.87
2019-02-27T00:35:00.009Z,72.05
2019-02-27T00:37:28.332Z,75.28
2019-02-27T00:39:56.600Z,72.08
2019-02-27T00:42:33.331Z,71.10
2019-02-27T00:44:54.844Z,71.85
2019-02-27T00:47:23.083Z,74.53
2019-02-27T00:49:51.333Z,73.45
2019-02-27T00:52:19.590Z,71.05
2019-02-27T00:54:47.824Z,71.45
2019-02-27T00:57:20.514Z,67.50
2019-02-27T00:59:46.098Z,66.35
2019-02-27T01:02:14.352Z,66.10
2019-02-27T01:04:42.589Z,66.72
2019-02-27T01:07:10.834Z,70.22
2019-02-27T01:09:39.550Z,70.95
2019-02-27T01:12:08.330Z,72.65
2019-02-27T01:14:37.191Z,69.75
2019-02-27T01:17:06.011Z,69.70
2019-02-27T01:19:38.342Z,72.35
2019-02-27T01:22:04.237Z,71.12
2019-02-27T01:24:32.501Z,71.12
2019-02-27T01:27:04.295Z,72.55
2019-02-27T01:29:30.769Z,67.10
2019-02-27T01:31:59.006Z,72.70
2019-02-27T01:34:27.301Z,68.40
2019-02-27T01:36:57.996Z,70.45
2019-02-27T01:39:25.525Z,67.82
2019-02-27T01:41:55.356Z,69.67
2019-02-27T01:44:23.726Z,72.42
2019-02-27T01:46:51.998Z,68.52
2019-02-27T01:49:20.230Z,69.12
2019-02-27T01:51:48.502Z,68.47
2019-02-27T01:54:16.750Z,69.00
2019-02-27T01:56:44.989Z,66.75
2019-02-27T01:59:14.045Z,66.85
2019-02-27T02:01:43.226Z,67.35
2019-02-27T02:04:11.488Z,68.12
2019-02-27T02:06:39.752Z,70.92
2019-02-27T02:09:11.269Z,68.92
2019-02-27T02:11:41.178Z,67.00
2019-02-27T02:14:37.069Z,66.65
2019-02-27T02:17:41.803Z,68.45
2019-02-27T02:20:37.459Z,67.30
2019-02-27T02:23:14.808Z,67.55
2019-02-27T02:25:55.183Z,64.32
2019-02-27T02:28:48.233Z,68.83
2019-02-27T02:31:41.039Z,69.82
2019-02-27T02:34:56.901Z,68.97
2019-02-27T02:37:44.812Z,67.82
2019-02-27T02:40:32.071Z,64.80
2019-02-27T02:43:18.743Z,72.70
2019-02-27T02:46:10.965Z,71.40
2019-02-27T02:49:15.843Z,70.15
2019-02-27T02:52:05.564Z,68.40
2019-02-27T02:54:50.578Z,70.50
2019-02-27T02:57:22.107Z,66.37
2019-02-27T03:00:13.482Z,70.52
2019-02-27T03:02:50.554Z,72.22
2019-02-27T03:05:24.578Z,68.28
2019-02-27T03:08:19.819Z,68.25
2019-02-27T03:10:59.008Z,68.12
2019-02-27T03:13:41.478Z,69.87
2019-02-27T03:16:18.016Z,66.57
2019-02-27T03:19:20.947Z,68.87
2019-02-27T03:22:10.377Z,69.42
2019-02-27T03:24:50.806Z,71.20
2019-02-27T03:27:43.164Z,71.17
2019-02-27T03:30:14.667Z,74.47
2019-02-27T03:33:05.467Z,69.65
2019-02-27T03:36:04.437Z,71.35
2019-02-27T03:38:51.112Z,65.97
2019-02-27T03:41:59.455Z,69.97
2019-02-27T03:44:33.437Z,73.20
2019-02-27T03:47:07.510Z,67.37
2019-02-27T03:49:40.803Z,68.87
2019-02-27T03:52:36.077Z,66.50
2019-02-27T03:55:08.967Z,68.40
2019-02-27T03:57:58.677Z,69.50
2019-02-27T04:00:53.804Z,69.97
2019-02-27T04:03:41.277Z,66.95
2019-02-27T04:06:21.747Z,65.47
2019-02-27T04:08:56.881Z,65.17
2019-02-27T04:11:25.192Z,66.87
2019-02-27T04:13:53.524Z,61.95
2019-02-27T04:16:21.781Z,65.90
2019-02-27T04:18:50.024Z,68.30
2019-02-27T04:21:22.074Z,68.33
2019-02-27T04:23:49.287Z,68.80
2019-02-27T04:26:19.414Z,70.22
2019-02-27T04:28:47.688Z,65.25
2019-02-27T04:31:15.944Z,66.00
2019-02-27T04:33:44.207Z,68.33
2019-02-27T04:36:13.382Z,65.20
2019-02-27T04:38:41.866Z,63.45
2019-02-27T04:41:10.110Z,64.60
2019-02-27T04:43:38.384Z,68.95
2019-02-27T04:46:06.657Z,68.95
2019-02-27T04:48:34.909Z,70.37
2019-02-27T04:51:03.149Z,65.78
2019-02-27T04:53:31.909Z,63.45
2019-02-27T04:56:00.818Z,66.10
2019-02-27T04:58:31.213Z,63.15
2019-02-27T05:00:59.793Z,70.35
2019-02-27T05:03:28.637Z,70.62
2019-02-27T05:05:57.044Z,66.07
2019-02-27T05:08:27.236Z,62.40
2019-02-27T05:10:55.259Z,65.50
2019-02-27T05:13:23.515Z,65.55
2019-02-27T05:15:51.768Z,59.75
2019-02-27T05:18:20.065Z,64.77
2019-02-27T05:20:48.318Z,67.67
2019-02-27T05:23:16.604Z,66.30
2019-02-27T05:25:44.898Z,69.75
2019-02-27T05:28:13.166Z,71.15
2019-02-27T05:30:44.799Z,70.17
2019-02-27T05:33:11.384Z,69.17
2019-02-27T05:35:39.647Z,66.42
2019-02-27T05:38:07.886Z,68.00
2019-02-27T05:40:36.133Z,70.52
2019-02-27T05:43:04.389Z,67.30
2019-02-27T05:45:32.641Z,70.25
2019-02-27T05:48:00.913Z,68.50
2019-02-27T05:50:29.146Z,66.57
2019-02-27T05:52:57.394Z,69.32
2019-02-27T05:55:25.657Z,64.80
2019-02-27T05:57:53.896Z,69.22
2019-02-27T06:00:22.538Z,69.60
2019-02-27T06:02:50.782Z,66.80
2019-02-27T06:05:19.022Z,69.22
2019-02-27T06:07:47.309Z,65.45
2019-02-27T06:10:19.750Z,67.67
2019-02-27T06:12:47.338Z,66.62
2019-02-27T06:15:35.033Z,69.32
2019-02-27T06:18:03.310Z,67.85
2019-02-27T06:20:31.542Z,70.00
2019-02-27T06:23:04.148Z,70.47
2019-02-27T06:25:29.777Z,66.90
2019-02-27T06:27:58.015Z,70.80
2019-02-27T06:30:27.902Z,71.50
2019-02-27T06:32:56.244Z,68.37
2019-02-27T06:35:24.509Z,70.10
2019-02-27T06:37:52.782Z,73.97
2019-02-27T06:40:21.041Z,73.02
2019-02-27T06:42:53.376Z,74.82
2019-02-27T06:45:19.253Z,74.07
2019-02-27T06:47:47.529Z,78.22
2019-02-27T06:50:16.426Z,76.45
2019-02-27T06:52:44.682Z,77.53
2019-02-27T06:55:14.094Z,76.85
2019-02-27T06:57:42.375Z,77.27
2019-02-27T07:00:19.124Z,74.45
2019-02-27T07:02:47.386Z,80.67
2019-02-27T07:05:15.669Z,79.65
2019-02-27T07:07:43.988Z,79.85
2019-02-27T07:10:19.512Z,86.22
2019-02-27T07:12:46.635Z,82.22
2019-02-27T07:15:23.761Z,79.50
2019-02-27T07:17:52.092Z,84.72
2019-02-27T07:20:23.878Z,77.22
2019-02-27T07:22:50.338Z,79.55
2019-02-27T07:25:18.950Z,85.92
2019-02-27T07:27:47.197Z,78.17
2019-02-27T07:30:17.216Z,81.15
2019-02-27T07:32:45.454Z,83.10
2019-02-27T07:35:14.829Z,81.05
2019-02-27T07:37:47.109Z,83.15
2019-02-27T07:40:17.711Z,85.67
2019-02-27T07:42:45.942Z,82.90
2019-02-27T07:45:19.187Z,85.40
2019-02-27T07:47:47.500Z,77.87
2019-02-27T07:50:17.777Z,83.07
2019-02-27T07:52:46.033Z,86.55
2019-02-27T07:55:21.889Z,83.90
2019-02-27T07:57:47.698Z,75.12
2019-02-27T08:00:21.195Z,85.70
2019-02-27T08:02:49.456Z,83.70
2019-02-27T08:05:17.725Z,98.52
2019-02-27T08:07:48.650Z,112.72
2019-02-27T08:10:25.851Z,124.55
2019-02-27T08:12:56.540Z,113.08
2019-02-27T08:15:25.207Z,107.22
2019-02-27T08:17:57.549Z,96.80
2019-02-27T08:20:23.797Z,93.35
2019-02-27T08:22:52.026Z,97.97
2019-02-27T08:25:20.278Z,81.80
2019-02-27T08:27:48.529Z,78.75
2019-02-27T08:30:19.342Z,76.25
2019-02-27T08:32:47.682Z,76.80
2019-02-27T08:35:16.718Z,68.00
2019-02-27T08:37:45.155Z,60.92
2019-02-27T08:40:14.035Z,57.73
2019-02-27T08:42:42.324Z,63.90
2019-02-27T08:45:19.924Z,63.98
2019-02-27T08:47:46.541Z,70.08
2019-02-27T08:50:16.507Z,57.53
2019-02-27T08:52:44.843Z,58.00
2019-02-27T08:55:19.919Z,61.75
2019-02-27T08:57:45.729Z,65.95
2019-02-27T09:00:32.885Z,66.80
2019-02-27T09:03:02.867Z,67.03
2019-02-27T09:05:31.297Z,66.07
2019-02-27T09:07:59.585Z,65.65
2019-02-27T09:10:30.402Z,67.62
2019-02-27T09:15:27.758Z,62.10
2019-02-27T09:17:56.029Z,58.28
2019-02-27T09:20:24.280Z,49.90
2019-02-27T09:22:52.537Z,50.70
2019-02-27T09:25:23.925Z,48.00
2019-02-27T09:27:50.771Z,49.58
2019-02-27T09:30:21.501Z,47.75
2019-02-27T09:32:49.762Z,45.38
2019-02-27T09:35:18.010Z,48.90
2019-02-27T09:37:48.345Z,45.50
2019-02-27T09:40:27.189Z,45.52
2019-02-27T09:42:55.430Z,46.55
2019-02-27T09:45:31.061Z,45.33
2019-02-27T09:48:00.563Z,44.08
2019-02-27T09:50:37.416Z,44.08
2019-02-27T09:53:05.693Z,41.63
2019-02-27T09:55:33.942Z,47.40
2019-02-27T09:58:02.293Z,42.25
2019-02-27T10:01:03.133Z,45.10
2019-02-27T10:03:32.889Z,43.45
2019-02-27T10:06:01.371Z,50.45
2019-02-27T10:08:29.636Z,43.92
2019-02-27T10:10:57.897Z,41.60
2019-02-27T10:13:26.170Z,42.43
2019-02-27T10:15:54.416Z,37.17
2019-02-27T10:18:22.671Z,40.25
2019-02-27T10:20:50.919Z,44.30
2019-02-27T10:23:19.192Z,39.18
2019-02-27T10:25:47.444Z,40.43
2019-02-27T10:28:15.692Z,39.95
2019-02-27T10:30:44.192Z,37.67
2019-02-27T10:33:12.578Z,38.15
2019-02-27T10:35:40.839Z,37.55
2019-02-27T10:38:09.082Z,37.75
2019-02-27T10:40:37.360Z,42.62
2019-02-27T10:43:05.627Z,35.63
2019-02-27T10:45:33.896Z,37.80
2019-02-27T10:48:02.146Z,35.03
2019-02-27T10:50:30.409Z,35.40
2019-02-27T10:52:58.678Z,35.52
2019-02-27T10:55:27.213Z,37.98
2019-02-27T10:57:55.677Z,36.30
2019-02-27T11:00:49.316Z,38.23
2019-02-27T11:03:17.586Z,40.90
2019-02-27T11:05:45.831Z,34.63
2019-02-27T11:08:14.090Z,37.60
2019-02-27T11:10:42.357Z,35.88
2019-02-27T11:13:10.615Z,39.15
2019-02-27T11:15:41.426Z,38.50
2019-02-27T11:18:08.950Z,33.65
2019-02-27T11:20:37.303Z,37.00
2019-02-27T11:23:07.088Z,36.38
2019-02-27T11:25:35.549Z,36.85
2019-02-27T11:28:03.827Z,37.10
2019-02-27T11:30:42.459Z,36.05
2019-02-27T11:33:10.801Z,35.70
2019-02-27T11:35:39.066Z,35.85
2019-02-27T11:38:07.389Z,34.13
2019-02-27T11:40:35.674Z,37.40
2019-02-27T11:43:06.710Z,38.83
2019-02-27T11:45:33.937Z,34.23
2019-02-27T11:48:02.209Z,36.68
2019-02-27T11:50:30.634Z,35.85
2019-02-27T11:53:01.829Z,35.68
2019-02-27T11:55:29.252Z,35.63
2019-02-27T11:57:57.780Z,36.93
2019-02-27T12:00:31.370Z,32.42
2019-02-27T12:02:59.748Z,33.88
2019-02-27T12:05:33.877Z,35.68
2019-02-27T12:07:58.244Z,36.70
2019-02-27T12:10:31.646Z,40.35
2019-02-27T12:13:01.230Z,33.78
2019-02-27T12:15:29.961Z,33.58
2019-02-27T12:18:00.423Z,33.15
2019-02-27T12:20:28.188Z,38.83
2019-02-27T12:22:56.451Z,34.98
2019-02-27T12:25:29.094Z,35.23
2019-02-27T12:27:56.427Z,31.02
2019-02-27T12:30:29.495Z,33.95
2019-02-27T12:32:57.783Z,32.30
2019-02-27T12:35:29.040Z,36.70
2019-02-27T12:37:57.422Z,39.25
2019-02-27T12:40:26.065Z,29.52
2019-02-27T12:42:54.530Z,32.33
2019-02-27T12:45:25.837Z,31.97
2019-02-27T12:47:54.795Z,28.70
2019-02-27T12:50:30.815Z,33.92
2019-02-27T12:52:57.353Z,34.00
2019-02-27T12:55:25.800Z,32.60
2019-02-27T12:57:54.152Z,33.38
2019-02-27T13:00:27.461Z,33.10
2019-02-27T13:02:55.855Z,33.33
2019-02-27T13:05:27.362Z,30.25
2019-02-27T13:07:54.547Z,31.42
2019-02-27T13:10:24.101Z,33.40
2019-02-27T13:12:52.666Z,30.75
2019-02-27T13:15:40.996Z,30.20
2019-02-27T13:18:09.978Z,29.65
2019-02-27T13:20:38.249Z,30.52
2019-02-27T13:23:06.516Z,33.18
2019-02-27T13:25:34.784Z,30.55
2019-02-27T13:28:03.042Z,29.95
2019-02-27T13:30:31.310Z,29.30
2019-02-27T13:33:01.286Z,28.73
2019-02-27T13:35:29.542Z,28.65
2019-02-27T13:37:57.887Z,26.15
2019-02-27T13:40:35.359Z,26.45
2019-02-27T13:44:18.108Z,25.88
2019-02-27T13:46:46.382Z,26.52
2019-02-27T13:49:14.668Z,25.92
2019-02-27T13:51:42.954Z,27.62
2019-02-27T13:54:11.199Z,25.48
2019-02-27T13:56:39.461Z,25.43
2019-02-27T13:59:11.004Z,25.05
2019-02-27T14:01:37.694Z,25.55
2019-02-27T14:04:05.957Z,27.37
2019-02-27T14:06:34.317Z,23.35
2019-02-27T14:09:04.461Z,23.20
2019-02-27T14:11:32.610Z,21.73
2019-02-27T14:14:00.885Z,22.65
2019-02-27T14:16:29.117Z,20.27
2019-02-27T14:18:57.409Z,24.02
2019-02-27T14:21:25.673Z,25.10
2019-02-27T14:23:53.949Z,23.77
2019-02-27T14:26:22.213Z,23.32
2019-02-27T14:28:52.170Z,24.60
2019-02-27T14:31:20.428Z,19.98
2019-02-27T14:33:51.181Z,22.25
2019-02-27T14:36:18.669Z,20.37
2019-02-27T14:38:46.941Z,21.97
2019-02-27T14:41:15.216Z,18.70
2019-02-27T14:43:43.472Z,21.95
2019-02-27T14:46:12.261Z,22.55
2019-02-27T14:48:40.572Z,20.85
2019-02-27T14:51:11.052Z,19.95
2019-02-27T14:53:38.798Z,18.42
2019-02-27T14:56:10.019Z,20.30
2019-02-27T14:58:37.057Z,17.48
2019-02-27T15:01:05.326Z,23.00
2019-02-27T15:03:33.599Z,19.80
2019-02-27T15:06:01.918Z,22.42
2019-02-27T15:08:30.158Z,20.32
2019-02-27T15:10:58.441Z,20.40
2019-02-27T15:13:28.308Z,21.17
2019-02-27T15:15:56.662Z,18.05
2019-02-27T15:18:24.934Z,21.73
2019-02-27T15:20:53.246Z,19.20
2019-02-27T15:23:24.589Z,23.98
2019-02-27T15:25:51.494Z,19.87
2019-02-27T15:28:19.749Z,19.37
2019-02-27T15:30:48.250Z,20.30
2019-02-27T15:33:16.551Z,21.90
2019-02-27T15:35:44.861Z,22.77
2019-02-27T15:38:13.129Z,24.32
2019-02-27T15:40:41.370Z,23.22
2019-02-27T15:43:11.521Z,21.12
2019-02-27T15:45:47.302Z,22.70
2019-02-27T15:48:09.622Z,27.50
2019-02-27T15:50:37.930Z,28.70
2019-02-27T15:53:06.207Z,26.12
2019-02-27T15:55:35.359Z,25.45
2019-02-27T15:58:04.001Z,29.27
2019-02-27T16:00:32.262Z,27.45
2019-02-27T16:03:00.523Z,27.00
2019-02-27T16:05:31.529Z,26.57
2019-02-27T16:08:00.491Z,26.05
2019-02-27T16:10:29.056Z,25.92
2019-02-27T16:13:01.007Z,27.20
2019-02-27T16:15:27.622Z,36.48
2019-02-27T16:17:55.969Z,37.08
2019-02-27T16:20:25.040Z,30.20
2019-02-27T16:22:53.336Z,52.67
2019-02-27T16:25:22.948Z,31.82
2019-02-27T16:27:51.281Z,33.85
2019-02-27T16:30:31.137Z,37.90
2019-02-27T16:32:55.480Z,49.42
2019-02-27T16:35:23.811Z,69.82
2019-02-27T16:37:56.331Z,38.53
2019-02-27T16:40:23.299Z,46.00
2019-02-27T16:42:51.748Z,50.50
2019-02-27T16:45:22.653Z,76.00
2019-02-27T16:47:50.917Z,88.82
2019-02-27T16:50:23.904Z,128.47
2019-02-27T16:52:51.220Z,83.70
2019-02-27T16:55:21.268Z,113.28
2019-02-27T16:57:49.540Z,63.35
2019-02-27T17:00:23.256Z,46.63
2019-02-27T17:02:51.573Z,63.60
2019-02-27T17:05:19.825Z,74.85
2019-02-27T17:07:48.069Z,52.05
2019-02-27T17:10:22.232Z,62.75
2019-02-27T17:12:50.493Z,56.00
2019-02-27T17:15:18.779Z,76.28
2019-02-27T17:17:47.036Z,117.45
2019-02-27T17:20:18.005Z,64.45
2019-02-27T17:22:46.274Z,52.30
2019-02-27T17:25:14.689Z,57.62
2019-02-27T17:27:43.121Z,45.12
2019-02-27T17:30:14.938Z,55.55
2019-02-27T17:32:43.173Z,57.80
2019-02-27T17:35:11.648Z,64.30
2019-02-27T17:37:40.655Z,37.08
2019-02-27T17:40:11.573Z,33.25
2019-02-27T17:42:39.891Z,36.65
2019-02-27T17:45:13.207Z,34.73
2019-02-27T17:47:41.701Z,32.17
2019-02-27T17:50:11.346Z,34.33
2019-02-27T17:52:39.658Z,32.23
2019-02-27T17:55:11.175Z,38.25
2019-02-27T17:57:39.873Z,44.15
2019-02-27T18:00:24.025Z,44.58
2019-02-27T18:02:54.315Z,47.70
2019-02-27T18:05:25.348Z,46.20
2019-02-27T18:07:52.598Z,51.37
2019-02-27T18:10:21.145Z,47.53
2019-02-27T18:12:51.662Z,42.08
2019-02-27T18:15:21.613Z,47.30
2019-02-27T18:17:49.914Z,39.70
2019-02-27T18:20:18.167Z,44.38
2019-02-27T18:22:49.390Z,37.17
2019-02-27T18:25:18.080Z,35.33
2019-02-27T18:27:47.903Z,33.53
2019-02-27T18:30:20.857Z,34.13
2019-02-27T18:32:49.453Z,33.90
2019-02-27T18:35:18.743Z,35.48
2019-02-27T18:37:46.986Z,30.00
2019-02-27T18:40:16.296Z,29.20
2019-02-27T18:42:44.544Z,31.87
2019-02-27T18:45:16.235Z,31.80
2019-02-27T18:47:44.500Z,31.05
2019-02-27T18:50:14.285Z,29.27
2019-02-27T18:52:42.530Z,33.67
2019-02-27T18:55:14.997Z,30.65
2019-02-27T18:57:47.268Z,31.42
2019-02-27T19:00:21.730Z,29.40
2019-02-27T19:02:55.431Z,27.75
2019-02-27T19:05:23.784Z,32.53
2019-02-27T19:07:55.014Z,29.95
2019-02-27T19:10:22.093Z,28.67
2019-02-27T19:12:50.364Z,30.97
2019-02-27T19:15:28.926Z,31.62
2019-02-27T19:17:57.173Z,29.90
2019-02-27T19:20:46.331Z,34.70
2019-02-27T19:23:17.275Z,31.45
2019-02-27T19:25:44.588Z,30.15
2019-02-27T19:28:12.841Z,31.82
2019-02-27T19:30:41.764Z,34.40
2019-02-27T19:33:10.912Z,36.50
2019-02-27T19:35:39.728Z,31.35
2019-02-27T19:38:12.584Z,36.83
2019-02-27T19:40:37.966Z,31.02
2019-02-27T19:43:06.421Z,31.73
2019-02-27T19:45:35.755Z,30.60
2019-02-27T19:48:04.776Z,33.28
2019-02-27T19:50:33.066Z,32.13
2019-02-27T19:53:05.218Z,30.55
2019-02-27T19:55:31.302Z,30.52
2019-02-27T19:57:59.602Z,32.30
2019-02-27T20:00:35.028Z,34.43
2019-02-27T20:03:02.375Z,32.60
2019-02-27T20:05:30.867Z,32.80
2019-02-27T20:07:59.102Z,33.70
2019-02-27T20:10:32.257Z,33.18
2019-02-27T20:12:58.925Z,30.62
2019-02-27T20:15:27.199Z,30.65
2019-02-27T20:17:55.521Z,33.70
2019-02-27T20:20:24.222Z,32.58
2019-02-27T20:22:53.551Z,34.65
2019-02-27T20:25:24.561Z,33.33
2019-02-27T20:27:52.828Z,30.20
2019-02-27T20:30:22.177Z,29.67
2019-02-27T20:32:50.533Z,33.58
2019-02-27T20:35:20.844Z,32.10
2019-02-27T20:37:49.305Z,31.23
2019-02-27T20:40:19.500Z,30.62
2019-02-27T20:42:51.427Z,34.38
2019-02-27T20:45:19.382Z,34.25
2019-02-27T20:47:47.654Z,33.58
2019-02-27T20:50:39.974Z,33.38
2019-02-27T20:53:10.268Z,32.85
2019-02-27T20:55:38.505Z,35.10
2019-02-27T20:58:06.970Z,32.45
2019-02-27T21:00:36.530Z,31.87
2019-02-27T21:03:08.996Z,31.40
2019-02-27T21:05:40.990Z,34.88
2019-02-27T21:08:07.590Z,35.52
2019-02-27T21:10:35.868Z,35.80
2019-02-27T21:13:04.598Z,34.35
2019-02-27T21:15:33.442Z,33.60
2019-02-27T21:18:01.851Z,31.87
2019-02-27T21:20:30.113Z,32.38
2019-02-27T21:22:59.933Z,32.75
2019-02-27T21:25:28.520Z,34.35
2019-02-27T21:27:56.776Z,32.23
2019-02-27T21:30:25.785Z,36.95
2019-02-27T21:32:54.064Z,36.80
2019-02-27T21:35:22.318Z,34.27
2019-02-27T21:37:51.091Z,36.17
2019-02-27T21:40:40.447Z,35.58
2019-02-27T21:43:08.682Z,34.70
2019-02-27T21:45:37.422Z,34.95
2019-02-27T21:48:06.748Z,35.60
2019-02-27T21:50:39.598Z,33.50
2019-02-27T21:53:05.086Z,36.40
2019-02-27T21:55:33.456Z,34.88
2019-02-27T21:58:01.853Z,38.55
2019-02-27T22:00:30.486Z,32.15
2019-02-27T22:03:03.870Z,35.78
2019-02-27T22:05:52.598Z,33.67
2019-02-27T22:08:18.771Z,34.83
2019-02-27T22:10:47.052Z,33.13
2019-02-27T22:13:15.333Z,37.30
2019-02-27T22:15:43.600Z,31.12
2019-02-27T22:18:12.160Z,33.45
2019-02-27T22:20:40.475Z,33.98
2019-02-27T22:23:08.731Z,38.92
2019-02-27T22:25:37.011Z,33.98
2019-02-27T22:28:05.244Z,35.20
2019-02-27T22:30:33.557Z,33.50
2019-02-27T22:33:01.905Z,34.13
2019-02-27T22:35:30.505Z,37.35
2019-02-27T22:37:58.896Z,34.65
2019-02-27T22:40:27.255Z,35.30
2019-02-27T22:42:55.505Z,37.13
2019-02-27T22:45:23.774Z,34.95
2019-02-27T22:47:54.025Z,37.00
2019-02-27T22:50:22.022Z,36.17
2019-02-27T22:52:54.060Z,37.85
2019-02-27T22:55:20.261Z,40.35
2019-02-27T22:57:48.503Z,41.15
2019-02-27T23:00:53.297Z,38.28
2019-02-27T23:03:24.513Z,43.45
2019-02-27T23:05:52.889Z,42.10
2019-02-27T23:08:22.994Z,37.53
2019-02-27T23:10:51.124Z,41.15
2019-02-27T23:13:19.378Z,39.45
2019-02-27T23:15:47.640Z,43.13
2019-02-27T23:18:16.942Z,43.10
2019-02-27T23:20:45.233Z,45.63
2019-02-27T23:23:13.481Z,51.25
2019-02-27T23:25:42.300Z,45.10
2019-02-27T23:28:10.581Z,46.53
2019-02-27T23:30:38.831Z,50.33
2019-02-27T23:33:08.301Z,51.68
2019-02-27T23:35:36.568Z,51.92
2019-02-27T23:38:04.829Z,54.15
2019-02-27T23:40:33.101Z,59.80
2019-02-27T23:43:03.303Z,57.80
2019-02-27T23:45:31.329Z,57.30
2019-02-27T23:48:02.167Z,63.38
2019-02-27T23:50:29.546Z,62.13
2019-02-27T23:52:57.790Z,64.80
2019-02-27T23:55:26.071Z,71.50
2019-02-27T23:57:57.534Z,68.22
